Главная страница
METAR-TAF:

METAR-TAF

Аэропорты :

Ургенч, Узбекистан

широта: 41-35N, долгота: 060-38-42E, высота над уровнем моря: 98 м

Текущие метеонаблюдения

Эта сводка был подготовлена 35 минут назад, в 09:30 UTC
Ветер 2 Узел переменных направлений
Температура 19°C
Влажность 43%
Давление 1015 hPa
Видимость 10 км и более
Нет облачности ниже 1500 м, и нет кучево-дождевой облачности

METAR: UTNU 210930Z VRB02KT CAVOK 19/06 Q1015 R31/CLRD70 NOSIG

Время: 15:05 (10:05 UTC)

Прогноз

Эта сводка был подготовлена 5 часа и 1 минут назад, в 05:04 UTC
Прогноз действительный с 21-го 06 UTC до 22-го 06 UTC
Ветер 5 Узел переменных направлений
Видимость: 6000 м
временами
С 21-го 06 UTC до 21-го 12 UTC
Ветер 6 Узел от юго-восточный

TAF: UTNU 210504Z 2106/2206 VRB05KT 6000 NSC TEMPO 2106/2112 13006KT

Метеонаблюдения и прогнозы для более 4000 аэропортов (сводки METAR и TAF).

Имеющиеся станции представлены на карте желтыми и красными точками.

Чтобы увидеть название станции, наведите на нее мышь.

Затем щелкните, чтобы увидеть метеонаблюдения и метеопрогнозы.

Управление картой: чтобы увеличить масштаб, щелкните зеленые кнопки с черным крестиком; чтобы уменьшить масштаб, щелкните зеленую кнопку с тире; для просмотра соседних карт щелкайте зеленые стрелки.


METAR-TAF: